ENVA/TRD METAR and TAF weather

Enter ICAO airport designator
Station Type Date Time Source
ENVA METAR 2021/09/16 10:50 UTC NOAA

ENVA 161050Z 26007KT CAVOK 12/10 Q1016 NOSIG RMK WIND 670FT 00000KT


Station Type Date Time Source
ENVA Decoded METAR 2021/09/16 10:50 UTC NOAA

Trondheim / Vaernes, Norway (ENVA) 63-28N 010-56E 17M
Sep 16, 2021 - 06:50 AM EDT / 2021.09.16 1050 UTC
Wind: from the W (260 degrees) at 8 MPH (7 KT):0
Visibility: greater than 7 mile(s):0
Temperature: 53 F (12 C)
Dew Point: 50 F (10 C)
Relative Humidity: 87%
Pressure (altimeter): 30.00 in. Hg (1016 hPa)
ob: ENVA 161050Z 26007KT CAVOK 12/10 Q1016 NOSIG RMK WIND 670FT 00000KT
cycle: 11

Station Type Date Time Source
ENVA TAF 2021/09/16 06:58 UTC NOAA

TAF ENVA 160500Z 1606/1706 11007KT CAVOK PROB30
TEMPO 1618/1706 16015G25KT

Example: see airport list